createdAt,value
2022-12-09T00:00:32.461Z,26.80
2022-12-09T00:03:00.325Z,26.83
2022-12-09T00:05:27.690Z,26.67
2022-12-09T00:07:55.193Z,25.23
2022-12-09T00:10:22.455Z,25.27
2022-12-09T00:12:49.659Z,23.08
2022-12-09T00:15:17.054Z,24.48
2022-12-09T00:17:44.263Z,23.50
2022-12-09T00:20:12.293Z,22.75
2022-12-09T00:22:39.826Z,23.60
2022-12-09T00:25:07.830Z,24.92
2022-12-09T00:27:35.212Z,24.50
2022-12-09T00:30:02.531Z,24.92
2022-12-09T00:32:30.155Z,24.52
2022-12-09T00:34:57.437Z,23.30
2022-12-09T00:37:24.774Z,24.35
2022-12-09T00:39:52.026Z,25.17
2022-12-09T00:42:19.218Z,25.90
2022-12-09T00:44:46.522Z,23.75
2022-12-09T00:47:13.997Z,25.95
2022-12-09T00:49:41.560Z,25.73
2022-12-09T00:52:09.068Z,24.38
2022-12-09T00:54:36.333Z,25.88
2022-12-09T00:57:03.599Z,24.60
2022-12-09T00:59:30.835Z,25.33
2022-12-09T01:01:58.300Z,24.35
2022-12-09T01:04:25.678Z,24.27
2022-12-09T01:06:53.006Z,24.90
2022-12-09T01:09:20.308Z,26.63
2022-12-09T01:11:47.561Z,25.95
2022-12-09T01:14:14.781Z,26.55
2022-12-09T01:16:42.089Z,26.75
2022-12-09T01:19:10.860Z,26.23
2022-12-09T01:21:38.376Z,26.38
2022-12-09T01:24:12.162Z,25.40
2022-12-09T01:26:39.955Z,25.17
2022-12-09T01:29:07.357Z,26.55
2022-12-09T01:31:34.992Z,25.20
2022-12-09T01:34:02.251Z,23.50
2022-12-09T01:36:30.526Z,23.88
2022-12-09T01:38:59.471Z,23.63
2022-12-09T01:41:26.940Z,24.75
2022-12-09T01:44:24.692Z,23.67
2022-12-09T01:46:56.863Z,23.98
2022-12-09T01:49:42.545Z,22.80
2022-12-09T01:52:12.584Z,22.38
2022-12-09T01:54:41.850Z,24.23
2022-12-09T01:59:37.835Z,22.75
2022-12-09T02:02:06.595Z,22.20
2022-12-09T02:04:39.662Z,22.45
2022-12-09T02:07:10.000Z,21.73
2022-12-09T02:09:38.206Z,22.30
2022-12-09T02:12:20.521Z,22.38
2022-12-09T02:15:12.924Z,22.95
2022-12-09T02:17:42.341Z,23.00
2022-12-09T02:20:18.595Z,22.52
2022-12-09T02:22:49.495Z,21.25
2022-12-09T02:25:33.491Z,21.70
2022-12-09T02:28:11.749Z,21.38
2022-12-09T02:30:52.318Z,22.45
2022-12-09T02:33:43.668Z,21.73
2022-12-09T02:36:15.453Z,20.13
2022-12-09T02:38:44.322Z,20.42
2022-12-09T02:41:19.109Z,20.48
2022-12-09T02:43:50.795Z,19.70
2022-12-09T02:46:20.210Z,20.67
2022-12-09T02:51:18.815Z,18.52
2022-12-09T02:56:15.656Z,18.58
2022-12-09T02:58:42.882Z,21.48
2022-12-09T03:01:32.539Z,20.88
2022-12-09T03:03:59.866Z,19.67
2022-12-09T03:06:32.162Z,21.63
2022-12-09T03:09:08.187Z,22.38
2022-12-09T03:11:36.517Z,23.33
2022-12-09T03:14:20.169Z,22.25
2022-12-09T03:17:01.314Z,22.13
2022-12-09T03:19:37.951Z,21.60
2022-12-09T03:22:09.370Z,21.10
2022-12-09T03:24:55.833Z,20.60
2022-12-09T03:27:26.642Z,19.48
2022-12-09T03:29:54.086Z,19.90
2022-12-09T03:32:23.871Z,20.17
2022-12-09T03:34:52.328Z,18.90
2022-12-09T03:37:21.167Z,21.40
2022-12-09T03:39:48.859Z,20.30
2022-12-09T03:42:20.663Z,22.48
2022-12-09T03:44:57.320Z,20.17
2022-12-09T03:47:24.693Z,20.95
2022-12-09T03:49:51.999Z,19.90
2022-12-09T03:52:34.153Z,22.25
2022-12-09T03:55:06.594Z,22.08
2022-12-09T03:57:37.686Z,21.13
2022-12-09T04:00:06.650Z,20.90
2022-12-09T04:05:01.818Z,19.67
2022-12-09T04:07:29.078Z,20.63
2022-12-09T04:09:56.534Z,20.95
2022-12-09T04:12:23.742Z,21.35
2022-12-09T04:14:51.263Z,20.50
2022-12-09T04:17:18.864Z,20.20
2022-12-09T04:19:46.116Z,19.85
2022-12-09T04:22:13.992Z,19.73
2022-12-09T04:24:41.207Z,19.35
2022-12-09T04:27:10.066Z,18.90
2022-12-09T04:29:37.261Z,19.48
2022-12-09T04:32:05.287Z,19.00
2022-12-09T04:34:34.031Z,18.38
2022-12-09T04:37:01.299Z,19.15
2022-12-09T04:39:29.216Z,18.17
2022-12-09T04:41:56.520Z,18.20
2022-12-09T04:44:23.900Z,17.55
2022-12-09T04:46:51.163Z,18.40
2022-12-09T04:49:18.595Z,17.25
2022-12-09T04:51:45.814Z,19.80
2022-12-09T04:54:14.121Z,19.27
2022-12-09T04:56:41.805Z,17.83
2022-12-09T04:59:09.446Z,19.17
2022-12-09T05:01:37.100Z,19.33
2022-12-09T05:04:04.883Z,18.10
2022-12-09T05:06:32.955Z,18.77
2022-12-09T05:09:00.630Z,18.23
2022-12-09T05:11:28.279Z,17.83
2022-12-09T05:13:56.017Z,19.58
2022-12-09T05:16:24.107Z,18.98
2022-12-09T05:18:51.577Z,18.08
2022-12-09T05:21:20.496Z,19.55
2022-12-09T05:23:48.657Z,18.85
2022-12-09T05:26:20.833Z,18.85
2022-12-09T05:28:48.684Z,22.40
2022-12-09T05:31:21.065Z,19.77
2022-12-09T05:33:49.742Z,19.30
2022-12-09T05:36:20.867Z,21.20
2022-12-09T05:38:48.436Z,19.70
2022-12-09T05:41:16.637Z,22.27
2022-12-09T05:43:44.049Z,21.70
2022-12-09T05:46:11.758Z,21.98
2022-12-09T05:48:39.833Z,22.70
2022-12-09T05:51:10.512Z,22.00
2022-12-09T05:53:37.939Z,21.23
2022-12-09T05:56:05.797Z,22.98
2022-12-09T05:58:33.666Z,22.08
2022-12-09T06:01:08.127Z,23.17
2022-12-09T06:03:36.509Z,22.52
2022-12-09T06:06:09.405Z,23.33
2022-12-09T06:08:37.937Z,21.58
2022-12-09T06:11:08.717Z,21.20
2022-12-09T06:13:36.128Z,22.10
2022-12-09T06:16:05.421Z,22.75
2022-12-09T06:18:33.784Z,21.67
2022-12-09T06:21:04.893Z,21.63
2022-12-09T06:23:32.157Z,21.63
2022-12-09T06:25:59.542Z,22.20
2022-12-09T06:28:26.859Z,22.20
2022-12-09T06:30:54.503Z,22.50
2022-12-09T06:33:52.457Z,21.90
2022-12-09T06:36:09.634Z,21.85
2022-12-09T06:38:37.143Z,22.73
2022-12-09T06:41:12.960Z,22.80
2022-12-09T06:43:41.409Z,21.90
2022-12-09T06:46:13.012Z,23.60
2022-12-09T06:48:40.943Z,23.00
2022-12-09T06:51:08.338Z,22.75
2022-12-09T06:53:36.124Z,24.42
2022-12-09T06:56:11.514Z,24.50
2022-12-09T06:58:39.320Z,22.75
2022-12-09T07:01:18.401Z,23.48
2022-12-09T07:03:48.205Z,22.63
2022-12-09T07:06:26.780Z,23.13
2022-12-09T07:08:54.869Z,23.70
2022-12-09T07:11:22.613Z,22.73
2022-12-09T07:13:51.533Z,21.08
2022-12-09T07:16:19.389Z,22.27
2022-12-09T07:18:46.980Z,21.75
2022-12-09T07:21:16.897Z,20.15
2022-12-09T07:23:44.757Z,21.10
2022-12-09T07:26:12.523Z,22.38
2022-12-09T07:28:42.642Z,21.67
2022-12-09T07:31:23.620Z,20.63
2022-12-09T07:33:52.854Z,20.52
2022-12-09T07:36:22.294Z,20.52
2022-12-09T07:38:57.191Z,21.08
2022-12-09T07:41:25.240Z,21.92
2022-12-09T07:43:52.912Z,21.73
2022-12-09T07:46:21.710Z,19.63
2022-12-09T07:48:49.507Z,21.17
2022-12-09T07:51:17.020Z,20.77
2022-12-09T07:53:44.560Z,17.83
2022-12-09T07:56:14.787Z,19.80
2022-12-09T07:58:43.097Z,20.92
2022-12-09T08:01:17.448Z,19.52
2022-12-09T08:03:45.607Z,18.15
2022-12-09T08:06:16.140Z,19.60
2022-12-09T08:08:44.257Z,19.08
2022-12-09T08:11:14.651Z,19.88
2022-12-09T08:13:42.450Z,20.00
2022-12-09T08:16:12.495Z,19.45
2022-12-09T08:18:41.297Z,19.38
2022-12-09T08:21:14.139Z,19.50
2022-12-09T08:23:42.044Z,20.90
2022-12-09T08:26:10.785Z,20.23
2022-12-09T08:28:39.434Z,18.60
2022-12-09T08:31:15.597Z,19.42
2022-12-09T08:33:43.499Z,19.75
2022-12-09T08:36:16.660Z,19.52
2022-12-09T08:38:44.231Z,21.80
2022-12-09T08:41:17.016Z,20.70
2022-12-09T08:43:45.022Z,19.67
2022-12-09T08:46:12.962Z,17.58
2022-12-09T08:48:41.723Z,18.80
2022-12-09T08:51:10.625Z,18.75
2022-12-09T08:53:38.396Z,18.42
2022-12-09T08:56:15.558Z,18.52
2022-12-09T08:58:43.341Z,18.67
2022-12-09T09:01:19.811Z,17.70
2022-12-09T09:03:49.090Z,18.00
2022-12-09T09:06:18.158Z,17.95
2022-12-09T09:08:46.060Z,17.17
2022-12-09T09:11:16.805Z,18.10
2022-12-09T09:13:46.043Z,19.20
2022-12-09T09:16:16.011Z,17.45
2022-12-09T09:18:44.687Z,17.60
2022-12-09T09:21:13.992Z,17.58
2022-12-09T09:23:42.803Z,15.07
2022-12-09T09:26:15.203Z,16.55
2022-12-09T09:28:43.238Z,16.45
2022-12-09T09:31:13.376Z,15.35
2022-12-09T09:33:40.996Z,17.00
2022-12-09T09:36:12.200Z,15.65
2022-12-09T09:38:40.246Z,13.82
2022-12-09T09:41:28.081Z,14.15
2022-12-09T09:43:56.347Z,15.75
2022-12-09T09:46:44.973Z,15.35
2022-12-09T09:49:27.855Z,15.65
2022-12-09T09:51:55.679Z,15.40
2022-12-09T09:54:23.485Z,15.10
2022-12-09T09:57:20.079Z,13.65
2022-12-09T10:00:05.015Z,13.82
2022-12-09T10:03:01.502Z,15.77
2022-12-09T10:05:35.660Z,13.43
2022-12-09T10:08:33.782Z,15.18
2022-12-09T10:11:21.090Z,14.60
2022-12-09T10:14:14.523Z,13.85
2022-12-09T10:17:13.714Z,13.70
2022-12-09T10:19:48.754Z,14.57
2022-12-09T10:22:20.398Z,14.00
2022-12-09T10:25:00.004Z,15.63
2022-12-09T10:27:31.413Z,14.25
2022-12-09T10:30:12.796Z,13.90
2022-12-09T10:32:44.041Z,13.98
2022-12-09T10:35:18.043Z,13.55
2022-12-09T10:37:47.921Z,14.95
2022-12-09T10:43:10.256Z,13.07
2022-12-09T10:48:44.723Z,13.93
2022-12-09T10:51:22.922Z,14.93
2022-12-09T10:54:02.909Z,16.13
2022-12-09T10:56:33.458Z,18.88
2022-12-09T10:59:18.021Z,19.23
2022-12-09T11:02:02.054Z,18.63
2022-12-09T11:04:36.342Z,20.10
2022-12-09T11:07:12.038Z,18.80
2022-12-09T11:09:44.811Z,24.20
2022-12-09T11:12:20.277Z,18.85
2022-12-09T11:14:56.906Z,19.25
2022-12-09T11:17:25.318Z,19.38
2022-12-09T11:20:07.900Z,20.73
2022-12-09T11:22:44.185Z,20.48
2022-12-09T11:25:32.498Z,20.83
2022-12-09T11:28:06.095Z,22.33
2022-12-09T11:30:40.654Z,34.30
2022-12-09T11:33:15.227Z,22.13
2022-12-09T11:35:45.879Z,21.80
2022-12-09T11:38:31.893Z,21.05
2022-12-09T11:41:10.840Z,23.23
2022-12-09T11:43:48.319Z,23.17
2022-12-09T11:46:20.795Z,19.48
2022-12-09T11:48:56.817Z,15.50
2022-12-09T11:51:33.005Z,15.45
2022-12-09T11:54:21.864Z,19.08
2022-12-09T11:56:50.359Z,16.10
2022-12-09T11:59:34.773Z,16.90
2022-12-09T12:02:26.638Z,19.83
2022-12-09T12:05:01.733Z,18.13
2022-12-09T12:07:47.380Z,18.23
2022-12-09T12:10:25.514Z,19.40
2022-12-09T12:13:02.830Z,24.77
2022-12-09T12:15:34.781Z,18.17
2022-12-09T12:21:18.857Z,18.77
2022-12-09T12:24:25.792Z,18.20
2022-12-09T12:27:09.595Z,16.83
2022-12-09T12:29:40.963Z,19.33
2022-12-09T12:32:25.916Z,20.55
2022-12-09T12:35:22.360Z,16.45
2022-12-09T12:38:04.071Z,23.80
2022-12-09T12:41:02.209Z,24.30
2022-12-09T12:44:18.858Z,17.70
2022-12-09T12:47:04.925Z,18.05
2022-12-09T12:49:55.389Z,17.40
2022-12-09T12:56:03.969Z,17.25
2022-12-09T12:58:37.975Z,31.38
2022-12-09T13:01:08.381Z,18.85
2022-12-09T13:03:38.624Z,17.67
2022-12-09T13:06:10.263Z,16.80
2022-12-09T13:09:03.011Z,17.23
2022-12-09T13:11:48.200Z,16.73
2022-12-09T13:14:21.244Z,17.05
2022-12-09T13:16:49.601Z,17.55
2022-12-09T13:19:27.880Z,16.27
2022-12-09T13:21:55.963Z,17.17
2022-12-09T13:24:42.751Z,17.25
2022-12-09T13:27:23.015Z,16.15
2022-12-09T13:30:03.957Z,16.75
2022-12-09T13:32:49.796Z,16.27
2022-12-09T13:36:06.264Z,15.88
2022-12-09T13:38:39.737Z,16.98
2022-12-09T13:41:51.894Z,16.83
2022-12-09T13:44:19.271Z,15.50
2022-12-09T13:46:46.549Z,15.52
2022-12-09T13:49:28.872Z,15.38
2022-12-09T13:51:57.009Z,17.00
2022-12-09T13:54:28.305Z,18.10
2022-12-09T13:57:23.529Z,15.82
2022-12-09T13:59:55.447Z,16.35
2022-12-09T14:02:22.831Z,17.23
2022-12-09T14:05:10.740Z,17.40
2022-12-09T14:07:51.933Z,18.42
2022-12-09T14:10:40.711Z,18.30
2022-12-09T14:13:46.573Z,19.38
2022-12-09T14:16:34.528Z,19.48
2022-12-09T14:19:26.406Z,19.52
2022-12-09T14:22:17.178Z,22.08
2022-12-09T14:24:45.448Z,20.80
2022-12-09T14:27:14.545Z,19.10
2022-12-09T14:29:47.830Z,19.10
2022-12-09T14:32:32.277Z,19.73
2022-12-09T14:35:02.924Z,19.20
2022-12-09T14:37:43.155Z,22.73
2022-12-09T14:40:26.041Z,37.42
2022-12-09T14:43:25.213Z,30.23
2022-12-09T14:46:02.409Z,20.58
2022-12-09T14:48:40.412Z,40.45
2022-12-09T14:51:20.526Z,33.95
2022-12-09T14:53:52.637Z,24.00
2022-12-09T14:56:21.795Z,23.95
2022-12-09T14:59:18.166Z,25.38
2022-12-09T15:02:00.460Z,20.48
2022-12-09T15:04:42.065Z,21.15
2022-12-09T15:07:15.562Z,21.35
2022-12-09T15:09:50.331Z,20.63
2022-12-09T15:12:18.005Z,22.75
2022-12-09T15:14:46.660Z,23.40
2022-12-09T15:17:27.567Z,22.98
2022-12-09T15:20:02.063Z,24.13
2022-12-09T15:22:31.930Z,23.50
2022-12-09T15:24:59.902Z,23.73
2022-12-09T15:27:27.193Z,23.80
2022-12-09T15:29:54.964Z,24.60
2022-12-09T15:32:28.779Z,24.63
2022-12-09T15:34:56.138Z,25.40
2022-12-09T15:37:28.202Z,24.98
2022-12-09T15:40:05.824Z,25.35
2022-12-09T15:42:34.623Z,25.33
2022-12-09T15:45:08.643Z,26.23
2022-12-09T15:48:03.795Z,24.92
2022-12-09T15:50:54.672Z,23.83
2022-12-09T15:53:36.749Z,20.10
2022-12-09T15:56:12.357Z,20.45
2022-12-09T15:58:45.985Z,20.05
2022-12-09T16:01:23.147Z,20.77
2022-12-09T16:03:51.872Z,19.55
2022-12-09T16:06:26.835Z,19.55
2022-12-09T16:08:54.431Z,21.17
2022-12-09T16:11:37.753Z,21.05
2022-12-09T16:14:08.552Z,21.58
2022-12-09T16:17:03.061Z,18.98
2022-12-09T16:19:38.248Z,18.65
2022-12-09T16:22:16.044Z,18.85
2022-12-09T16:25:13.672Z,19.15
2022-12-09T16:27:44.970Z,21.40
2022-12-09T16:30:23.677Z,22.30
2022-12-09T16:32:59.120Z,23.08
2022-12-09T16:35:40.134Z,24.60
2022-12-09T16:38:10.226Z,24.38
2022-12-09T16:40:43.964Z,20.58
2022-12-09T16:43:17.458Z,20.65
2022-12-09T16:45:47.041Z,23.65
2022-12-09T16:48:14.897Z,22.70
2022-12-09T16:50:49.440Z,23.67
2022-12-09T16:53:19.735Z,25.48
2022-12-09T16:56:19.402Z,24.33
2022-12-09T16:58:46.677Z,25.33
2022-12-09T17:01:28.676Z,26.75
2022-12-09T17:04:04.076Z,25.10
2022-12-09T17:06:31.660Z,23.70
2022-12-09T17:08:59.029Z,25.23
2022-12-09T17:11:26.239Z,26.35
2022-12-09T17:13:53.750Z,26.00
2022-12-09T17:16:23.881Z,26.27
2022-12-09T17:21:49.343Z,26.48
2022-12-09T17:24:16.716Z,26.75
2022-12-09T17:26:43.999Z,27.90
2022-12-09T17:29:11.197Z,28.23
2022-12-09T17:31:38.740Z,28.77
2022-12-09T17:34:06.134Z,28.27
2022-12-09T17:36:33.515Z,27.38
2022-12-09T17:39:02.557Z,29.65
2022-12-09T17:41:29.872Z,27.55
2022-12-09T17:43:59.209Z,29.30
2022-12-09T17:48:53.646Z,26.90
2022-12-09T17:51:23.955Z,22.75
2022-12-09T17:53:51.202Z,23.33
2022-12-09T17:56:20.436Z,25.25
2022-12-09T17:58:58.091Z,24.27
2022-12-09T18:01:25.500Z,26.20
2022-12-09T18:04:01.357Z,26.73
2022-12-09T18:06:34.757Z,25.90
2022-12-09T18:09:04.334Z,27.45
2022-12-09T18:11:31.484Z,26.38
2022-12-09T18:13:59.765Z,27.73
2022-12-09T18:16:27.220Z,28.27
2022-12-09T18:18:54.761Z,31.60
2022-12-09T18:21:22.300Z,28.17
2022-12-09T18:23:49.584Z,29.27
2022-12-09T18:26:18.390Z,29.85
2022-12-09T18:28:46.182Z,29.73
2022-12-09T18:31:15.961Z,28.52
2022-12-09T18:33:43.806Z,27.30
2022-12-09T18:36:24.317Z,26.67
2022-12-09T18:38:53.996Z,26.10
2022-12-09T18:41:26.623Z,25.83
2022-12-09T18:43:55.679Z,25.77
2022-12-09T18:46:28.601Z,26.98
2022-12-09T18:48:58.479Z,25.27
2022-12-09T18:51:26.186Z,27.65
2022-12-09T18:53:56.778Z,28.58
2022-12-09T18:56:24.479Z,26.92
2022-12-09T18:59:08.947Z,26.92
2022-12-09T19:01:41.484Z,27.80
2022-12-09T19:04:23.654Z,28.70
2022-12-09T19:06:53.217Z,28.67
2022-12-09T19:09:26.436Z,31.23
2022-12-09T19:11:53.896Z,29.65
2022-12-09T19:14:22.923Z,31.88
2022-12-09T19:16:51.090Z,31.95
2022-12-09T19:19:20.872Z,30.88
2022-12-09T19:21:48.749Z,30.23
2022-12-09T19:24:25.541Z,31.05
2022-12-09T19:26:54.861Z,34.03
2022-12-09T19:29:24.706Z,30.02
2022-12-09T19:31:52.858Z,29.05
2022-12-09T19:34:22.598Z,31.48
2022-12-09T19:36:51.211Z,32.85
2022-12-09T19:39:20.870Z,33.45
2022-12-09T19:41:48.523Z,29.15
2022-12-09T19:44:30.929Z,31.45
2022-12-09T19:47:04.921Z,32.03
2022-12-09T19:49:32.247Z,32.25
2022-12-09T19:52:00.021Z,30.85
2022-12-09T19:54:29.747Z,29.15
2022-12-09T19:56:57.590Z,29.90
2022-12-09T19:59:26.199Z,30.80
2022-12-09T20:01:53.622Z,30.52
2022-12-09T20:04:48.086Z,29.52
2022-12-09T20:09:37.516Z,28.63
2022-12-09T20:12:04.933Z,28.48
2022-12-09T20:14:32.327Z,26.95
2022-12-09T20:16:59.843Z,28.95
2022-12-09T20:19:27.070Z,31.55
2022-12-09T20:21:54.270Z,29.50
2022-12-09T20:24:21.592Z,30.88
2022-12-09T20:26:49.091Z,30.13
2022-12-09T20:29:16.497Z,26.85
2022-12-09T20:31:43.909Z,28.33
2022-12-09T20:34:16.412Z,26.23
2022-12-09T20:36:44.920Z,26.40
2022-12-09T20:39:18.103Z,26.77
2022-12-09T20:41:45.926Z,29.45
2022-12-09T20:44:14.072Z,31.15
2022-12-09T20:46:44.899Z,33.75
2022-12-09T20:49:12.082Z,30.58
2022-12-09T20:51:41.386Z,29.42
2022-12-09T20:56:37.073Z,25.45
2022-12-09T20:59:04.808Z,25.70
2022-12-09T21:01:34.173Z,26.88
2022-12-09T21:04:03.036Z,25.10
2022-12-09T21:06:32.391Z,23.23
2022-12-09T21:11:27.899Z,24.10
2022-12-09T21:14:00.230Z,23.17
2022-12-09T21:16:30.336Z,23.98
2022-12-09T21:19:00.333Z,25.23
2022-12-09T21:21:30.130Z,23.55
2022-12-09T21:23:57.542Z,23.45
2022-12-09T21:26:26.182Z,25.23
2022-12-09T21:28:54.277Z,23.38
2022-12-09T21:31:24.110Z,29.17
2022-12-09T21:33:53.033Z,21.60
2022-12-09T21:36:26.208Z,25.98
2022-12-09T21:38:53.962Z,27.10
2022-12-09T21:41:24.527Z,26.48
2022-12-09T21:43:55.001Z,23.02
2022-12-09T21:46:30.505Z,23.95
2022-12-09T21:49:03.692Z,26.83
2022-12-09T21:51:32.611Z,26.05
2022-12-09T21:54:00.267Z,21.73
2022-12-09T21:56:30.678Z,23.58
2022-12-09T21:58:59.009Z,23.42
2022-12-09T22:01:37.645Z,25.80
2022-12-09T22:04:07.030Z,24.65
2022-12-09T22:09:02.579Z,22.23
2022-12-09T22:11:31.606Z,23.88
2022-12-09T22:13:59.992Z,24.23
2022-12-09T22:16:30.578Z,23.43
2022-12-09T22:18:59.450Z,24.98
2022-12-09T22:21:29.213Z,22.60
2022-12-09T22:23:59.350Z,24.50
2022-12-09T22:26:27.172Z,24.65
2022-12-09T22:28:54.696Z,24.33
2022-12-09T22:31:27.214Z,24.83
2022-12-09T22:33:56.307Z,25.73
2022-12-09T22:36:23.835Z,26.80
2022-12-09T22:38:52.603Z,25.25
2022-12-09T22:41:22.124Z,26.30
2022-12-09T22:43:50.417Z,27.67
2022-12-09T22:46:23.902Z,26.17
2022-12-09T22:48:51.439Z,25.38
2022-12-09T22:51:24.087Z,28.00
2022-12-09T22:53:53.150Z,24.17
2022-12-09T22:56:21.454Z,24.55
2022-12-09T22:58:48.733Z,22.45
2022-12-09T23:01:23.400Z,22.88
2022-12-09T23:03:50.867Z,23.55
2022-12-09T23:06:18.028Z,23.98
2022-12-09T23:08:45.793Z,23.00
2022-12-09T23:11:24.310Z,22.15
2022-12-09T23:13:51.676Z,22.08
2022-12-09T23:16:21.665Z,22.58
2022-12-09T23:18:49.196Z,23.00
2022-12-09T23:21:22.473Z,20.95
2022-12-09T23:23:53.382Z,23.38
2022-12-09T23:26:21.916Z,21.92
2022-12-09T23:28:50.994Z,21.20
2022-12-09T23:31:20.850Z,22.27
2022-12-09T23:33:48.885Z,21.33
2022-12-09T23:36:20.737Z,22.63
2022-12-09T23:38:48.486Z,22.20
2022-12-09T23:41:17.444Z,22.27
2022-12-09T23:43:45.834Z,22.20
2022-12-09T23:46:16.101Z,23.17
2022-12-09T23:48:47.341Z,21.25
2022-12-09T23:51:20.018Z,21.40
2022-12-09T23:53:49.074Z,22.42
2022-12-09T23:56:18.434Z,20.98
